Time;durP1;ratioP1;P1;durP2;ratioP2;P2;SDS_P1;SDS_P2;PMS_P1;PMS_P2;Temp;Humidity;BMP_temperature;BMP_pressure;BME280_temperature;BME280_humidity;BME280_pressure;Samples;Min_cycle;Max_cycle;Signal;HPM_P1;HPM_P2
2021/10/16 00:00:13;;;;;;;35.08;17.33;;;8.90;99.90;;;;;;2100916;28;20393;-70
2021/10/16 00:01:14;;;;;;;32.25;17.58;;;8.90;99.90;;;;;;2099160;28;20032;-70
2021/10/16 00:02:15;;;;;;;34.45;18.48;;;8.90;99.90;;;;;;2099342;28;20074;-70
2021/10/16 00:03:15;;;;;;;39.25;20.15;;;8.90;99.90;;;;;;2096268;28;20588;-70
2021/10/16 00:04:16;;;;;;;35.03;18.25;;;8.90;99.90;;;;;;2095874;28;20383;-70
2021/10/16 00:05:17;;;;;;;34.22;19.02;;;8.90;99.90;;;;;;2096577;28;20158;-69
2021/10/16 00:06:17;;;;;;;35.33;18.25;;;8.90;99.90;;;;;;2099708;28;20016;-70
2021/10/16 00:07:18;;;;;;;36.03;20.30;;;8.90;99.90;;;;;;2094875;28;20063;-70
2021/10/16 00:08:19;;;;;;;32.75;18.10;;;8.80;99.90;;;;;;2099559;28;20096;-70
2021/10/16 00:09:20;;;;;;;37.67;18.70;;;8.80;99.90;;;;;;2096236;28;20584;-69
2021/10/16 00:10:21;;;;;;;35.92;18.00;;;8.80;99.90;;;;;;2094540;28;20391;-70
2021/10/16 00:11:21;;;;;;;28.63;16.35;;;8.80;99.90;;;;;;2094971;28;20100;-70
2021/10/16 00:12:22;;;;;;;31.17;17.52;;;8.80;99.90;;;;;;2097234;28;20411;-70
2021/10/16 00:13:23;;;;;;;35.25;19.35;;;8.80;99.90;;;;;;2091295;28;20071;-69
2021/10/16 00:14:23;;;;;;;35.65;17.90;;;8.70;99.90;;;;;;2090544;28;20070;-70
2021/10/16 00:15:25;;;;;;;31.08;17.38;;;8.70;99.90;;;;;;2089793;28;20032;-70
2021/10/16 00:16:27;;;;;;;37.50;18.42;;;8.70;99.90;;;;;;2090445;28;20438;-70
2021/10/16 00:17:28;;;;;;;25.88;17.08;;;8.60;99.90;;;;;;2088892;28;20037;-69
2021/10/16 00:18:29;;;;;;;29.05;16.85;;;8.60;99.90;;;;;;2089554;28;20017;-70
2021/10/16 00:19:30;;;;;;;25.85;15.55;;;8.60;99.90;;;;;;2089983;28;20017;-70
2021/10/16 00:20:30;;;;;;;32.00;18.33;;;8.70;99.90;;;;;;2092634;28;20150;-70
2021/10/16 00:21:33;;;;;;;29.05;17.30;;;8.60;99.90;;;;;;2088457;28;20017;-69
2021/10/16 00:22:34;;;;;;;31.08;17.30;;;8.70;99.90;;;;;;2098689;28;20027;-69
2021/10/16 00:23:35;;;;;;;30.85;16.05;;;8.60;99.90;;;;;;2101400;28;20024;-70
2021/10/16 00:24:36;;;;;;;25.77;16.80;;;8.60;99.90;;;;;;2106027;28;20613;-70
2021/10/16 00:25:37;;;;;;;26.58;17.27;;;8.60;99.90;;;;;;2109303;28;20028;-70
2021/10/16 00:26:37;;;;;;;29.08;17.20;;;8.60;99.90;;;;;;2106184;28;20373;-70
2021/10/16 00:27:38;;;;;;;34.15;17.38;;;8.60;99.90;;;;;;2108384;28;20020;-70
2021/10/16 00:28:39;;;;;;;29.02;16.83;;;8.60;99.90;;;;;;2100709;28;20024;-70
2021/10/16 00:29:39;;;;;;;27.58;14.98;;;8.60;99.90;;;;;;2097597;28;20632;-70
2021/10/16 00:30:40;;;;;;;32.38;17.85;;;8.60;99.90;;;;;;2089163;28;20021;-70
2021/10/16 00:31:41;;;;;;;34.65;17.73;;;8.60;99.90;;;;;;2096189;28;20055;-70
2021/10/16 00:32:41;;;;;;;29.17;17.13;;;8.60;99.90;;;;;;2097905;28;20052;-70
2021/10/16 00:33:42;;;;;;;28.48;17.63;;;8.60;99.90;;;;;;2097809;28;20501;-70
2021/10/16 00:34:43;;;;;;;26.35;16.08;;;8.50;99.90;;;;;;2097857;28;20718;-70
2021/10/16 00:35:44;;;;;;;25.38;16.27;;;8.50;99.90;;;;;;2097010;28;20035;-71
2021/10/16 00:36:45;;;;;;;26.67;16.38;;;8.50;99.90;;;;;;2088823;28;20512;-70
2021/10/16 00:37:45;;;;;;;27.70;15.50;;;8.50;99.90;;;;;;2097004;28;20028;-70
2021/10/16 00:38:46;;;;;;;27.23;16.27;;;8.50;99.90;;;;;;2107166;28;20023;-70
2021/10/16 00:39:47;;;;;;;32.25;14.63;;;8.50;99.90;;;;;;2101356;28;20024;-69
2021/10/16 00:40:47;;;;;;;32.85;17.13;;;8.50;99.90;;;;;;2093199;28;20029;-70
2021/10/16 00:41:49;;;;;;;28.30;17.13;;;8.40;99.90;;;;;;2095159;28;20035;-69
2021/10/16 00:42:53;;;;;;;32.45;17.38;;;8.40;99.90;;;;;;2097644;28;20100;-69
2021/10/16 00:44:14;;;;;;;30.10;16.80;;;8.40;99.90;;;;;;2097989;28;20035;-70
2021/10/16 00:45:18;;;;;;;28.90;16.15;;;8.30;99.90;;;;;;2097826;28;20016;-70
2021/10/16 00:46:19;;;;;;;27.20;15.90;;;8.30;99.90;;;;;;2113954;28;20019;-70
2021/10/16 00:47:19;;;;;;;32.17;16.67;;;8.20;99.90;;;;;;2105269;28;21031;-70
2021/10/16 00:48:20;;;;;;;25.08;15.57;;;8.30;99.90;;;;;;2093032;28;20741;-69
2021/10/16 00:49:21;;;;;;;30.40;15.60;;;8.30;99.90;;;;;;2097050;28;20017;-70
2021/10/16 00:50:24;;;;;;;26.50;16.60;;;8.20;99.90;;;;;;2091083;28;20357;-70
2021/10/16 00:51:24;;;;;;;28.30;17.73;;;8.20;99.90;;;;;;2098035;28;20017;-70
2021/10/16 00:52:25;;;;;;;26.30;16.33;;;8.20;99.90;;;;;;2113631;28;20186;-70
2021/10/16 00:53:26;;;;;;;27.63;15.77;;;8.20;99.90;;;;;;2105329;28;20099;-70
2021/10/16 00:54:28;;;;;;;30.67;15.68;;;8.20;99.90;;;;;;2088865;28;20025;-69
2021/10/16 00:55:29;;;;;;;28.20;14.98;;;8.10;99.90;;;;;;2096982;28;20021;-70
2021/10/16 00:56:30;;;;;;;29.07;16.67;;;8.20;99.90;;;;;;2097086;28;20456;-70
2021/10/16 00:57:31;;;;;;;27.35;15.98;;;8.10;99.90;;;;;;2091384;28;20278;-70
2021/10/16 00:58:33;;;;;;;27.92;16.00;;;8.10;99.90;;;;;;2095248;28;20021;-70
2021/10/16 00:59:34;;;;;;;23.35;14.20;;;8.10;99.90;;;;;;2096351;28;20024;-70
2021/10/16 01:00:35;;;;;;;23.85;15.07;;;8.10;99.90;;;;;;2095451;28;20063;-70
2021/10/16 01:01:37;;;;;;;27.67;15.13;;;8.10;99.90;;;;;;2096784;28;20052;-70
2021/10/16 01:02:38;;;;;;;25.55;15.85;;;8.10;99.90;;;;;;2095170;28;20146;-70
2021/10/16 01:03:38;;;;;;;28.90;15.15;;;8.00;99.90;;;;;;2092560;28;20419;-69
2021/10/16 01:04:39;;;;;;;24.23;15.55;;;8.00;99.90;;;;;;2097209;28;20021;-70
2021/10/16 01:05:40;;;;;;;27.65;15.60;;;8.00;99.90;;;;;;2089634;28;20021;-70
2021/10/16 01:06:41;;;;;;;30.95;16.15;;;7.90;99.90;;;;;;2096835;28;20412;-69
2021/10/16 01:07:42;;;;;;;29.95;16.88;;;7.80;99.90;;;;;;2096538;28;20028;-70
2021/10/16 01:08:42;;;;;;;29.15;16.23;;;7.80;99.90;;;;;;2097763;28;20024;-70
2021/10/16 01:09:44;;;;;;;23.95;14.18;;;7.80;99.90;;;;;;2091520;28;20025;-70
2021/10/16 01:10:46;;;;;;;29.42;15.55;;;7.80;99.90;;;;;;2095272;28;20024;-70
2021/10/16 01:11:52;;;;;;;30.75;16.60;;;7.80;99.90;;;;;;2096071;28;20028;-70
2021/10/16 01:12:53;;;;;;;25.20;15.60;;;7.80;99.90;;;;;;2091782;28;20085;-70
2021/10/16 01:13:54;;;;;;;29.65;16.45;;;7.80;99.90;;;;;;2097427;28;20081;-69
2021/10/16 01:14:59;;;;;;;26.70;17.20;;;7.80;99.90;;;;;;2097031;28;20055;-70
2021/10/16 01:16:00;;;;;;;32.28;15.63;;;7.80;99.90;;;;;;2097267;28;20032;-70
2021/10/16 01:17:00;;;;;;;27.98;15.52;;;7.70;99.90;;;;;;2091007;28;20076;-70
2021/10/16 01:18:01;;;;;;;30.23;16.83;;;7.70;99.90;;;;;;2091559;28;20086;-69
2021/10/16 01:19:10;;;;;;;29.75;16.45;;;7.70;99.90;;;;;;2092566;28;20067;-69
2021/10/16 01:20:14;;;;;;;25.83;15.63;;;7.70;99.90;;;;;;2095080;28;20059;-70
2021/10/16 01:21:15;;;;;;;28.58;16.98;;;7.60;99.90;;;;;;2096869;28;20027;-70
2021/10/16 01:22:16;;;;;;;32.42;15.90;;;7.60;99.90;;;;;;2097468;28;20028;-70
2021/10/16 01:23:17;;;;;;;27.48;15.90;;;7.60;99.90;;;;;;2095365;28;20088;-70
2021/10/16 01:24:20;;;;;;;34.17;17.50;;;7.60;99.90;;;;;;2101801;28;20020;-70
2021/10/16 01:25:23;;;;;;;28.17;16.45;;;7.60;99.90;;;;;;2098915;28;20876;-70
2021/10/16 01:26:28;;;;;;;29.25;16.38;;;7.60;99.90;;;;;;2089329;28;20032;-70
2021/10/16 01:27:31;;;;;;;31.10;16.35;;;7.50;99.90;;;;;;2090817;28;20028;-70
2021/10/16 01:28:33;;;;;;;27.05;16.40;;;7.50;99.90;;;;;;2096352;28;20028;-70
2021/10/16 01:29:36;;;;;;;30.02;15.70;;;7.50;99.90;;;;;;2096732;28;20575;-70
2021/10/16 01:30:37;;;;;;;29.42;17.35;;;7.50;99.90;;;;;;2096076;28;20020;-69
2021/10/16 01:31:38;;;;;;;26.02;15.85;;;7.50;99.90;;;;;;2096544;28;20047;-70
2021/10/16 01:32:39;;;;;;;31.17;16.85;;;7.50;99.90;;;;;;2092510;28;20551;-70
2021/10/16 01:33:40;;;;;;;34.55;15.73;;;7.40;99.90;;;;;;2088799;28;20017;-69
2021/10/16 01:34:41;;;;;;;23.73;14.68;;;7.40;99.90;;;;;;2092899;28;20055;-70
2021/10/16 01:35:59;;;;;;;24.33;15.23;;;7.40;99.90;;;;;;2096885;28;20024;-70
2021/10/16 01:37:00;;;;;;;24.38;14.88;;;7.30;99.90;;;;;;2087473;28;20605;-70
2021/10/16 01:38:01;;;;;;;29.40;15.13;;;7.30;99.90;;;;;;2088489;28;20033;-69
2021/10/16 01:39:01;;;;;;;31.15;15.90;;;7.30;99.90;;;;;;2087977;28;20070;-71
2021/10/16 01:40:02;;;;;;;26.17;15.35;;;7.30;99.90;;;;;;2085619;28;20029;-70
2021/10/16 01:41:03;;;;;;;29.35;16.98;;;7.30;99.90;;;;;;2082850;28;20587;-70
2021/10/16 01:42:04;;;;;;;25.58;16.70;;;7.40;99.90;;;;;;2087810;28;20507;-70
2021/10/16 01:43:06;;;;;;;25.35;15.57;;;7.30;99.90;;;;;;2080154;28;20041;-71
2021/10/16 01:44:08;;;;;;;27.15;16.40;;;7.30;99.90;;;;;;2085674;28;20020;-70
2021/10/16 01:45:14;;;;;;;27.50;15.77;;;7.30;99.90;;;;;;2087999;28;20044;-70
2021/10/16 01:46:15;;;;;;;35.38;17.13;;;7.30;99.90;;;;;;2088213;28;20017;-70
2021/10/16 01:47:15;;;;;;;27.30;15.27;;;7.30;99.90;;;;;;2088417;28;20096;-70
2021/10/16 01:48:21;;;;;;;28.75;17.60;;;7.30;99.90;;;;;;2089195;28;20029;-70
2021/10/16 01:49:22;;;;;;;26.52;15.77;;;7.20;99.90;;;;;;2081296;28;20657;-69
2021/10/16 01:50:23;;;;;;;30.98;16.02;;;7.30;99.90;;;;;;2081361;28;20096;-71
2021/10/16 01:51:24;;;;;;;32.83;17.05;;;7.30;99.90;;;;;;2082253;28;20021;-70
2021/10/16 01:52:28;;;;;;;28.20;17.58;;;7.30;99.90;;;;;;2084147;28;20115;-70
2021/10/16 01:53:29;;;;;;;30.05;17.13;;;7.20;99.90;;;;;;2088217;28;20021;-70
2021/10/16 01:54:30;;;;;;;25.88;15.35;;;7.20;99.90;;;;;;2088131;28;20033;-70
2021/10/16 01:55:30;;;;;;;26.90;15.50;;;7.20;99.90;;;;;;2084380;28;20028;-69
2021/10/16 01:56:32;;;;;;;25.48;15.15;;;7.20;99.90;;;;;;2079848;28;20593;-70
2021/10/16 01:57:32;;;;;;;32.20;15.95;;;7.20;99.90;;;;;;2084284;28;20021;-70
2021/10/16 01:58:33;;;;;;;27.63;15.07;;;7.30;99.90;;;;;;2088812;28;20036;-70
2021/10/16 01:59:35;;;;;;;28.65;16.80;;;7.30;99.90;;;;;;2081223;28;20021;-70
2021/10/16 02:00:36;;;;;;;23.58;15.32;;;7.30;99.90;;;;;;2080809;28;20025;-70
2021/10/16 02:01:37;;;;;;;25.85;16.35;;;7.30;99.90;;;;;;2087219;28;20017;-70
2021/10/16 02:02:38;;;;;;;30.08;17.88;;;7.20;99.90;;;;;;2087297;28;20147;-70
2021/10/16 02:03:38;;;;;;;26.30;15.77;;;7.20;99.90;;;;;;2088120;28;20021;-70
2021/10/16 02:04:39;;;;;;;24.95;15.50;;;7.10;99.90;;;;;;2087966;28;20028;-70
2021/10/16 02:05:45;;;;;;;29.08;15.93;;;7.10;99.90;;;;;;2088759;28;20029;-70
2021/10/16 02:06:46;;;;;;;29.25;16.60;;;7.00;99.90;;;;;;2103895;28;20103;-70
2021/10/16 02:07:46;;;;;;;26.60;14.88;;;7.00;99.90;;;;;;2096932;28;20055;-70
2021/10/16 02:08:47;;;;;;;27.92;15.77;;;7.00;99.90;;;;;;2080369;28;20105;-70
2021/10/16 02:09:47;;;;;;;27.58;15.25;;;7.00;99.90;;;;;;2082429;28;20017;-71
2021/10/16 02:10:48;;;;;;;26.92;17.15;;;7.00;99.90;;;;;;2079890;28;20029;-70
2021/10/16 02:11:49;;;;;;;30.67;16.80;;;7.10;99.90;;;;;;2080339;28;20113;-70
2021/10/16 02:12:49;;;;;;;24.48;15.77;;;7.00;99.90;;;;;;2081860;28;20061;-70
2021/10/16 02:13:50;;;;;;;26.92;16.52;;;7.10;99.90;;;;;;2088588;28;20029;-70
2021/10/16 02:14:51;;;;;;;33.80;15.35;;;7.10;99.90;;;;;;2088536;28;20021;-70
2021/10/16 02:15:51;;;;;;;29.73;15.68;;;7.10;99.90;;;;;;2087687;28;20025;-70
2021/10/16 02:16:52;;;;;;;29.02;16.10;;;7.10;99.90;;;;;;2088027;28;20100;-70
2021/10/16 02:17:53;;;;;;;29.65;15.40;;;7.10;99.90;;;;;;2083847;28;20033;-70
2021/10/16 02:18:54;;;;;;;28.63;16.35;;;7.10;99.90;;;;;;2081906;28;20030;-71
2021/10/16 02:19:54;;;;;;;30.85;16.85;;;7.10;99.90;;;;;;2084385;28;20468;-70
2021/10/16 02:20:55;;;;;;;29.33;15.50;;;7.10;99.90;;;;;;2088414;28;20028;-70
2021/10/16 02:21:56;;;;;;;31.23;16.92;;;7.10;99.90;;;;;;2088029;28;20090;-70
2021/10/16 02:22:56;;;;;;;26.27;15.40;;;7.00;99.90;;;;;;2088445;28;20024;-70
2021/10/16 02:23:57;;;;;;;28.55;15.82;;;7.00;99.90;;;;;;2090192;28;20020;-70
2021/10/16 02:24:58;;;;;;;31.23;16.33;;;7.00;99.90;;;;;;2094144;28;20029;-70
2021/10/16 02:25:58;;;;;;;31.55;17.48;;;7.00;99.90;;;;;;2086295;28;20392;-71
2021/10/16 02:26:59;;;;;;;31.55;15.38;;;7.10;99.90;;;;;;2081980;28;20086;-70
2021/10/16 02:28:00;;;;;;;24.65;15.77;;;7.00;99.90;;;;;;2099301;28;20610;-70
2021/10/16 02:29:00;;;;;;;27.63;15.15;;;7.00;99.90;;;;;;2104114;28;20423;-70
2021/10/16 02:30:01;;;;;;;25.35;14.75;;;7.00;99.90;;;;;;2088190;28;20017;-70
2021/10/16 02:31:02;;;;;;;26.48;15.75;;;7.00;99.90;;;;;;2104462;28;20020;-70
2021/10/16 02:32:03;;;;;;;29.60;15.55;;;6.90;99.90;;;;;;2104031;28;20020;-70
2021/10/16 02:33:04;;;;;;;27.83;14.38;;;6.90;99.90;;;;;;2086283;28;20036;-70
2021/10/16 02:34:05;;;;;;;29.27;15.82;;;6.90;99.90;;;;;;2085011;28;20115;-70
2021/10/16 02:35:06;;;;;;;27.00;16.08;;;6.90;99.90;;;;;;2081291;28;20025;-70
2021/10/16 02:36:07;;;;;;;25.37;15.03;;;6.90;99.90;;;;;;2080441;28;20581;-70
2021/10/16 02:37:07;;;;;;;25.55;14.73;;;6.90;99.90;;;;;;2084064;28;20260;-70
2021/10/16 02:38:08;;;;;;;30.48;15.98;;;6.90;99.90;;;;;;2096312;28;20033;-70
2021/10/16 02:39:09;;;;;;;24.90;14.70;;;6.90;99.90;;;;;;2104585;28;20027;-70
2021/10/16 02:40:10;;;;;;;24.20;15.32;;;6.90;99.90;;;;;;2085371;28;20051;-70
2021/10/16 02:41:11;;;;;;;25.97;14.37;;;6.90;99.90;;;;;;2088548;28;20028;-70
2021/10/16 02:42:12;;;;;;;23.67;14.80;;;6.90;99.90;;;;;;2103994;28;20677;-70
2021/10/16 02:43:13;;;;;;;24.70;14.27;;;6.90;99.90;;;;;;2104580;28;20341;-70
2021/10/16 02:44:13;;;;;;;24.02;15.15;;;6.80;99.90;;;;;;2088230;28;20017;-70
2021/10/16 02:45:14;;;;;;;24.35;14.30;;;6.80;99.90;;;;;;2088408;28;20021;-70
2021/10/16 02:46:15;;;;;;;29.60;14.15;;;6.80;99.90;;;;;;2087920;28;20045;-70
2021/10/16 02:47:16;;;;;;;27.10;14.07;;;6.80;99.90;;;;;;2084554;28;20017;-70
2021/10/16 02:48:17;;;;;;;27.55;14.45;;;6.80;99.90;;;;;;2081190;28;20104;-70
2021/10/16 02:49:18;;;;;;;25.85;14.13;;;6.80;99.90;;;;;;2097161;28;20070;-70
2021/10/16 02:50:18;;;;;;;27.90;14.27;;;6.70;99.90;;;;;;2096721;28;20024;-70
2021/10/16 02:51:19;;;;;;;20.88;13.10;;;6.70;99.90;;;;;;2088696;28;20021;-70
2021/10/16 02:52:19;;;;;;;27.48;14.55;;;6.60;99.90;;;;;;2087792;28;20421;-71
2021/10/16 02:53:20;;;;;;;21.67;13.13;;;6.60;99.90;;;;;;2088603;28;20040;-70
2021/10/16 02:54:21;;;;;;;26.67;13.85;;;6.60;99.90;;;;;;2088210;28;20416;-70
2021/10/16 02:55:21;;;;;;;23.65;13.88;;;6.60;99.90;;;;;;2082353;28;20025;-70
2021/10/16 02:56:22;;;;;;;26.95;14.23;;;6.70;99.90;;;;;;2081874;28;20475;-70
2021/10/16 02:57:23;;;;;;;26.60;14.52;;;6.70;99.90;;;;;;2083128;28;20524;-70
2021/10/16 02:58:23;;;;;;;29.70;15.13;;;6.70;99.90;;;;;;2104642;28;20157;-70
2021/10/16 02:59:24;;;;;;;29.05;14.55;;;6.60;99.90;;;;;;2095511;28;20543;-69
2021/10/16 03:00:26;;;;;;;28.55;15.52;;;6.70;99.90;;;;;;2087573;28;20166;-70
2021/10/16 03:01:26;;;;;;;22.00;14.50;;;6.70;99.90;;;;;;2088092;28;20079;-70
2021/10/16 03:02:27;;;;;;;24.90;15.43;;;6.70;99.90;;;;;;2088217;28;20508;-70
2021/10/16 03:03:29;;;;;;;30.77;15.57;;;6.70;99.90;;;;;;2088745;28;20049;-70
2021/10/16 03:04:30;;;;;;;27.00;15.38;;;6.70;99.90;;;;;;2083974;28;20478;-70
2021/10/16 03:05:30;;;;;;;23.50;15.05;;;6.70;99.90;;;;;;2101856;28;20062;-70
2021/10/16 03:06:31;;;;;;;28.80;14.88;;;6.70;99.90;;;;;;2104064;28;20046;-70
2021/10/16 03:07:32;;;;;;;34.13;15.88;;;6.70;99.90;;;;;;2080192;28;20029;-70
2021/10/16 03:08:32;;;;;;;26.83;15.02;;;6.60;99.90;;;;;;2088834;28;20427;-70
2021/10/16 03:09:33;;;;;;;23.52;14.52;;;6.60;99.90;;;;;;2088466;28;20369;-70
2021/10/16 03:10:34;;;;;;;24.63;15.13;;;6.60;99.90;;;;;;2088975;28;20489;-70
2021/10/16 03:11:34;;;;;;;24.65;15.75;;;6.60;99.90;;;;;;2088527;28;20021;-70
2021/10/16 03:12:35;;;;;;;28.42;14.68;;;6.60;99.90;;;;;;2084954;28;20583;-70
2021/10/16 03:13:36;;;;;;;23.52;14.95;;;6.60;99.90;;;;;;2080393;28;20025;-70
2021/10/16 03:14:37;;;;;;;26.92;15.40;;;6.60;99.90;;;;;;2080462;28;20120;-69
2021/10/16 03:15:38;;;;;;;25.40;14.02;;;6.60;99.90;;;;;;2096317;28;20691;-70
2021/10/16 03:16:39;;;;;;;24.33;14.02;;;6.50;99.90;;;;;;2101437;28;20662;-70
2021/10/16 03:17:40;;;;;;;21.48;13.43;;;6.60;99.90;;;;;;2084415;28;20029;-70
2021/10/16 03:18:40;;;;;;;22.73;14.00;;;6.60;99.90;;;;;;2099672;28;20507;-70
2021/10/16 03:19:41;;;;;;;19.65;13.23;;;6.60;99.90;;;;;;2101045;28;20689;-70
2021/10/16 03:20:42;;;;;;;23.10;13.73;;;6.60;99.90;;;;;;2080726;28;20390;-69
2021/10/16 03:21:42;;;;;;;24.85;14.48;;;6.60;99.90;;;;;;2085338;28;20053;-70
2021/10/16 03:22:43;;;;;;;21.88;13.73;;;6.60;99.90;;;;;;2087839;28;20178;-70
2021/10/16 03:23:43;;;;;;;23.75;14.43;;;6.60;99.90;;;;;;2086090;28;20437;-70
2021/10/16 03:24:44;;;;;;;27.60;15.15;;;6.70;99.90;;;;;;2080659;28;20628;-70
2021/10/16 03:25:45;;;;;;;26.95;15.65;;;6.60;99.90;;;;;;2080583;28;20048;-70
2021/10/16 03:26:46;;;;;;;28.02;15.63;;;6.60;99.90;;;;;;2083519;28;20366;-70
2021/10/16 03:27:46;;;;;;;30.30;15.98;;;6.60;99.90;;;;;;2088755;28;20018;-70
2021/10/16 03:28:47;;;;;;;28.40;14.80;;;6.60;99.90;;;;;;2087913;28;20025;-70
2021/10/16 03:29:48;;;;;;;21.48;14.65;;;6.60;99.90;;;;;;2087827;28;20110;-70
2021/10/16 03:30:48;;;;;;;32.13;15.32;;;6.60;99.90;;;;;;2087861;28;20036;-69
2021/10/16 03:31:49;;;;;;;24.67;14.98;;;6.50;99.90;;;;;;2087420;28;20693;-70
2021/10/16 03:32:50;;;;;;;22.00;13.50;;;6.50;99.90;;;;;;2088869;28;20029;-70
2021/10/16 03:33:51;;;;;;;21.48;14.02;;;6.50;99.90;;;;;;2080690;28;20026;-70
2021/10/16 03:34:51;;;;;;;22.60;14.73;;;6.40;99.90;;;;;;2080420;28;20056;-69
2021/10/16 03:35:52;;;;;;;23.52;13.90;;;6.40;99.90;;;;;;2080392;28;20076;-70
2021/10/16 03:36:53;;;;;;;20.23;13.68;;;6.40;99.90;;;;;;2080317;28;20501;-70
2021/10/16 03:37:54;;;;;;;24.63;15.05;;;6.30;99.90;;;;;;2080285;28;20433;-69
2021/10/16 03:38:54;;;;;;;24.95;14.82;;;6.30;99.90;;;;;;2085283;28;20107;-70
2021/10/16 03:39:55;;;;;;;21.17;13.45;;;6.40;99.90;;;;;;2083258;28;20022;-70
2021/10/16 03:40:56;;;;;;;24.08;14.00;;;6.40;99.90;;;;;;2087423;28;20033;-70
2021/10/16 03:41:56;;;;;;;28.85;14.93;;;6.40;99.90;;;;;;2087551;28;20025;-70
2021/10/16 03:42:57;;;;;;;22.92;14.80;;;6.40;99.90;;;;;;2085951;28;20029;-70
2021/10/16 03:43:58;;;;;;;22.65;14.73;;;6.40;99.90;;;;;;2084624;28;20020;-70
2021/10/16 03:44:58;;;;;;;24.23;15.50;;;6.50;99.90;;;;;;2104329;28;20028;-70
2021/10/16 03:45:59;;;;;;;22.52;14.27;;;6.50;99.90;;;;;;2104152;28;20029;-70
2021/10/16 03:47:00;;;;;;;26.48;15.00;;;6.50;99.90;;;;;;2085164;28;20039;-69
2021/10/16 03:48:00;;;;;;;29.27;16.05;;;6.50;99.90;;;;;;2084027;28;20017;-70
2021/10/16 03:49:01;;;;;;;24.23;15.90;;;6.60;99.90;;;;;;2087462;28;20017;-70
2021/10/16 03:50:02;;;;;;;23.08;15.13;;;6.60;99.90;;;;;;2081925;28;20075;-70
2021/10/16 03:51:03;;;;;;;33.35;16.70;;;6.50;99.90;;;;;;2088899;28;20203;-70
2021/10/16 03:52:04;;;;;;;28.85;16.02;;;6.50;99.90;;;;;;2089571;28;20472;-70
2021/10/16 03:53:05;;;;;;;26.52;15.32;;;6.50;99.90;;;;;;2089423;28;20401;-70
2021/10/16 03:54:05;;;;;;;26.45;14.48;;;6.50;99.90;;;;;;2089036;28;20032;-70
2021/10/16 03:55:07;;;;;;;26.38;15.80;;;6.40;99.90;;;;;;2086800;28;20033;-70
2021/10/16 03:56:08;;;;;;;21.75;15.60;;;6.40;99.90;;;;;;2081622;28;20019;-70
2021/10/16 03:57:08;;;;;;;30.65;16.13;;;6.40;99.90;;;;;;2081382;28;20040;-70
2021/10/16 03:58:09;;;;;;;22.67;15.40;;;6.40;99.90;;;;;;2089421;28;20032;-70
2021/10/16 03:59:10;;;;;;;20.35;14.10;;;6.40;99.90;;;;;;2093242;28;20103;-70
2021/10/16 04:00:19;;;;;;;24.38;14.93;;;6.40;99.90;;;;;;2090130;28;20075;-70
2021/10/16 04:01:20;;;;;;;25.83;14.95;;;6.40;99.90;;;;;;2089535;28;20071;-70
2021/10/16 04:02:21;;;;;;;21.95;13.88;;;6.40;99.90;;;;;;2090197;28;20029;-70
2021/10/16 04:03:21;;;;;;;29.38;13.88;;;6.40;99.90;;;;;;2089799;28;20024;-69
2021/10/16 04:04:22;;;;;;;25.15;14.38;;;6.30;99.90;;;;;;2088383;28;20530;-69
2021/10/16 04:05:23;;;;;;;27.10;14.85;;;6.30;99.90;;;;;;2084698;28;20374;-69
2021/10/16 04:06:23;;;;;;;24.13;14.40;;;6.30;99.90;;;;;;2089680;28;20048;-70
2021/10/16 04:07:24;;;;;;;25.40;15.18;;;6.30;99.90;;;;;;2082242;28;20018;-69
2021/10/16 04:08:25;;;;;;;25.00;15.93;;;6.30;99.90;;;;;;2096524;28;20024;-69
2021/10/16 04:09:25;;;;;;;23.73;15.13;;;6.30;99.90;;;;;;2097378;28;20529;-70
2021/10/16 04:10:26;;;;;;;24.77;15.48;;;6.30;99.90;;;;;;2084497;28;20485;-70
2021/10/16 04:11:27;;;;;;;24.70;14.75;;;6.30;99.90;;;;;;2082579;28;20093;-70
2021/10/16 04:12:28;;;;;;;25.75;16.42;;;6.30;99.90;;;;;;2081776;28;20017;-70
2021/10/16 04:13:28;;;;;;;27.13;15.00;;;6.30;99.90;;;;;;2092139;28;20055;-70
2021/10/16 04:14:29;;;;;;;24.95;15.30;;;6.30;99.90;;;;;;2092846;28;20016;-69
2021/10/16 04:15:30;;;;;;;23.40;14.95;;;6.40;99.90;;;;;;2086891;28;20025;-70
2021/10/16 04:16:30;;;;;;;24.40;15.43;;;6.40;99.90;;;;;;2085823;28;20025;-70
2021/10/16 04:17:31;;;;;;;27.25;15.38;;;6.40;99.90;;;;;;2089870;28;20480;-70
2021/10/16 04:18:32;;;;;;;21.95;15.55;;;6.40;99.90;;;;;;2089523;28;20149;-69
2021/10/16 04:19:33;;;;;;;26.95;16.25;;;6.40;99.90;;;;;;2088208;28;20420;-70
2021/10/16 04:20:34;;;;;;;28.27;14.52;;;6.40;99.90;;;;;;2089415;28;20025;-70
2021/10/16 04:21:34;;;;;;;24.92;15.45;;;6.30;99.90;;;;;;2101117;28;20122;-69
2021/10/16 04:22:35;;;;;;;24.10;14.20;;;6.30;99.90;;;;;;2097586;28;21202;-69
2021/10/16 04:23:35;;;;;;;23.58;13.75;;;6.40;99.90;;;;;;2085355;28;20032;-70
2021/10/16 04:24:36;;;;;;;23.35;14.63;;;6.30;99.90;;;;;;2092844;28;20496;-70
2021/10/16 04:25:37;;;;;;;36.75;16.20;;;6.40;99.90;;;;;;2089814;28;20025;-69
2021/10/16 04:26:38;;;;;;;22.23;14.13;;;6.40;99.90;;;;;;2089560;28;20389;-70
2021/10/16 04:27:38;;;;;;;27.48;15.65;;;6.40;99.90;;;;;;2089143;28;20056;-70
2021/10/16 04:28:39;;;;;;;26.55;14.50;;;6.40;99.90;;;;;;2088762;28;20513;-70
2021/10/16 04:29:39;;;;;;;22.45;15.07;;;6.40;99.90;;;;;;2089388;28;20017;-70
2021/10/16 04:30:40;;;;;;;25.35;15.13;;;6.40;99.90;;;;;;2089704;28;20029;-70
2021/10/16 04:31:41;;;;;;;22.63;14.52;;;6.30;99.90;;;;;;2086156;28;20092;-70
2021/10/16 04:32:42;;;;;;;24.58;15.00;;;6.30;99.90;;;;;;2088462;28;20033;-70
2021/10/16 04:33:42;;;;;;;22.33;15.43;;;6.30;99.90;;;;;;2098513;28;20510;-70
2021/10/16 04:34:43;;;;;;;22.65;14.55;;;6.30;99.90;;;;;;2097609;28;20033;-70
2021/10/16 04:35:44;;;;;;;25.00;14.60;;;6.30;99.90;;;;;;2088980;28;20472;-70
2021/10/16 04:36:45;;;;;;;17.48;12.63;;;6.30;99.90;;;;;;2089116;28;20017;-70
2021/10/16 04:37:45;;;;;;;24.88;14.30;;;6.30;99.90;;;;;;2089743;28;20527;-70
2021/10/16 04:38:48;;;;;;;25.60;14.32;;;6.30;99.90;;;;;;2089238;28;20078;-69
2021/10/16 04:39:49;;;;;;;21.77;13.55;;;6.20;99.90;;;;;;2082889;28;20026;-70
2021/10/16 04:40:49;;;;;;;24.73;14.60;;;6.20;99.90;;;;;;2088363;28;20029;-70
2021/10/16 04:41:50;;;;;;;24.08;14.70;;;6.20;99.90;;;;;;2089336;28;20029;-70
2021/10/16 04:42:53;;;;;;;23.42;14.38;;;6.20;99.90;;;;;;2105710;28;20042;-70
2021/10/16 04:43:54;;;;;;;23.75;15.02;;;6.20;99.90;;;;;;2096527;28;20028;-70
2021/10/16 04:44:54;;;;;;;23.20;14.65;;;6.20;99.90;;;;;;2089103;28;20116;-70
2021/10/16 04:45:56;;;;;;;21.13;13.57;;;6.20;99.90;;;;;;2088359;28;20108;-70
2021/10/16 04:46:56;;;;;;;25.23;14.73;;;6.20;99.90;;;;;;2089513;28;20024;-70
2021/10/16 04:47:59;;;;;;;24.45;14.13;;;6.30;99.90;;;;;;2089856;28;20770;-70
2021/10/16 04:49:00;;;;;;;28.77;14.75;;;6.30;99.90;;;;;;2083272;28;20020;-69
2021/10/16 04:50:01;;;;;;;27.42;15.88;;;6.30;99.90;;;;;;2088080;28;20032;-69
2021/10/16 04:51:02;;;;;;;27.15;14.43;;;6.30;99.90;;;;;;2082145;28;20033;-70
2021/10/16 04:52:07;;;;;;;24.85;13.45;;;6.30;99.90;;;;;;2083222;28;20033;-70
2021/10/16 04:53:08;;;;;;;23.63;14.27;;;6.20;99.90;;;;;;2096843;28;20020;-69
2021/10/16 04:54:09;;;;;;;20.52;13.38;;;6.20;99.90;;;;;;2089222;28;20017;-69
2021/10/16 04:55:09;;;;;;;26.88;13.88;;;6.10;99.90;;;;;;2085566;28;20032;-70
2021/10/16 04:56:10;;;;;;;19.95;13.55;;;6.10;99.90;;;;;;2082596;28;20458;-70
2021/10/16 04:57:11;;;;;;;20.38;12.98;;;6.10;99.90;;;;;;2083807;28;20627;-69
2021/10/16 04:58:12;;;;;;;20.98;12.80;;;6.10;99.90;;;;;;2089068;28;20377;-69
2021/10/16 04:59:12;;;;;;;23.60;12.75;;;6.00;99.90;;;;;;2088516;28;20536;-69
2021/10/16 05:00:13;;;;;;;20.65;13.98;;;6.10;99.90;;;;;;2078824;28;20116;-69
2021/10/16 05:01:14;;;;;;;21.55;14.05;;;6.10;99.90;;;;;;2075505;28;20548;-70
2021/10/16 05:02:14;;;;;;;26.35;14.23;;;6.10;99.90;;;;;;2088649;28;20756;-69
2021/10/16 05:03:16;;;;;;;21.77;13.63;;;6.10;99.90;;;;;;2088689;28;20100;-69
2021/10/16 05:04:16;;;;;;;21.65;13.52;;;6.10;99.90;;;;;;2086249;28;20029;-69
2021/10/16 05:05:17;;;;;;;25.35;14.13;;;6.20;99.90;;;;;;2086761;28;20029;-69
2021/10/16 05:06:20;;;;;;;25.00;14.82;;;6.10;99.90;;;;;;2092728;28;20048;-69
2021/10/16 05:07:21;;;;;;;23.77;14.57;;;6.10;99.90;;;;;;2096634;28;20025;-69
2021/10/16 05:08:22;;;;;;;26.45;15.07;;;6.10;99.90;;;;;;2097105;28;20453;-69
2021/10/16 05:09:23;;;;;;;20.65;13.98;;;6.10;99.90;;;;;;2096391;28;20056;-69
2021/10/16 05:10:23;;;;;;;21.85;13.73;;;6.10;99.90;;;;;;2088819;28;20043;-69
2021/10/16 05:11:24;;;;;;;28.73;15.25;;;6.20;99.90;;;;;;2088829;28;20496;-69
2021/10/16 05:12:25;;;;;;;31.10;15.85;;;6.20;99.90;;;;;;2088612;28;20520;-69
2021/10/16 05:13:25;;;;;;;30.35;15.60;;;6.20;99.90;;;;;;2081926;28;20029;-69